Time;durP1;ratioP1;P1;durP2;ratioP2;P2;SDS_P1;SDS_P2;PMS_P1;PMS_P2;Temp;Humidity;BMP_temperature;BMP_pressure;BME280_temperature;BME280_humidity;BME280_pressure;Samples;Min_cycle;Max_cycle;Signal;HPM_P1;HPM_P2
2023/11/02 00:02:03;;;;;;;6.17;2.07;;;;;;;9.88;100.00;99015.28;7370542;19;20450;-42
2023/11/02 00:04:33;;;;;;;3.57;1.40;;;;;;;9.80;100.00;99023.72;7394641;19;20435;-39
2023/11/02 00:07:03;;;;;;;3.37;1.33;;;;;;;9.81;100.00;99027.19;7370859;19;20423;-39
2023/11/02 00:09:39;;;;;;;3.30;1.33;;;;;;;9.79;100.00;99016.84;7393122;19;20492;-39
2023/11/02 00:12:16;;;;;;;5.10;1.23;;;;;;;9.76;100.00;99011.66;7371879;19;20810;-39
2023/11/02 00:14:51;;;;;;;4.00;1.60;;;;;;;9.79;100.00;99016.00;7371279;19;20966;-38
2023/11/02 00:17:51;;;;;;;3.70;1.60;;;;;;;9.74;100.00;99005.59;7394070;19;20405;-38
2023/11/02 00:20:37;;;;;;;5.60;1.60;;;;;;;9.69;100.00;99004.69;7371423;19;20492;-40
2023/11/02 00:23:08;;;;;;;6.43;1.57;;;;;;;9.74;100.00;99008.16;7392318;19;20427;-40
2023/11/02 00:25:56;;;;;;;6.40;1.63;;;;;;;9.68;100.00;99002.91;7368781;19;20979;-39
2023/11/02 00:28:28;;;;;;;3.10;1.37;;;;;;;9.64;100.00;99014.88;7392119;19;20435;-38
2023/11/02 00:30:58;;;;;;;4.23;1.20;;;;;;;9.62;100.00;99014.00;7369004;19;20429;-41
2023/11/02 00:33:29;;;;;;;7.17;2.20;;;;;;;9.61;100.00;99006.22;7393756;19;20443;-39
2023/11/02 00:35:59;;;;;;;2.67;1.13;;;;;;;9.55;100.00;99014.72;7369244;19;20415;-41
2023/11/02 00:38:31;;;;;;;10.40;1.97;;;;;;;9.53;100.00;99012.13;7394400;19;20774;-39
2023/11/02 00:41:02;;;;;;;4.87;1.20;;;;;;;9.49;100.00;99009.47;7368004;19;21037;-40
2023/11/02 00:43:35;;;;;;;5.83;1.50;;;;;;;9.48;100.00;99016.31;7392412;19;20455;-39
2023/11/02 00:46:04;;;;;;;9.50;2.00;;;;;;;9.48;100.00;99010.31;7368849;19;20458;-39
2023/11/02 00:48:36;;;;;;;7.40;1.27;;;;;;;9.47;100.00;99001.72;7390098;19;20416;-39
2023/11/02 00:51:19;;;;;;;5.87;1.83;;;;;;;9.49;100.00;98992.28;7371823;19;20476;-39
2023/11/02 00:53:54;;;;;;;6.50;1.60;;;;;;;9.41;100.00;98988.72;7399758;19;20451;-38
2023/11/02 00:56:25;;;;;;;4.37;1.40;;;;;;;9.39;100.00;98985.25;7376784;19;20443;-42
2023/11/02 00:58:57;;;;;;;3.93;1.40;;;;;;;9.41;100.00;98978.44;7400976;19;20395;-39
2023/11/02 01:01:29;;;;;;;4.03;1.37;;;;;;;9.35;100.00;98980.88;7376532;19;21042;-40
2023/11/02 01:04:00;;;;;;;3.13;1.30;;;;;;;9.36;100.00;98985.19;7397682;19;20435;-40
2023/11/02 01:06:30;;;;;;;5.70;1.77;;;;;;;9.37;100.00;98977.50;7374876;19;20431;-39
2023/11/02 01:09:03;;;;;;;3.00;1.20;;;;;;;9.34;100.00;98969.75;7397187;19;20415;-40
2023/11/02 01:11:38;;;;;;;3.70;1.30;;;;;;;9.31;100.00;98959.38;7375075;19;20423;-40
2023/11/02 01:14:40;;;;;;;3.20;1.80;;;;;;;9.31;100.00;98960.25;7398121;19;20967;-39
2023/11/02 01:17:09;;;;;;;4.90;1.70;;;;;;;9.27;100.00;98960.16;7377458;19;20438;-39
2023/11/02 01:19:56;;;;;;;4.63;1.73;;;;;;;9.23;100.00;98966.94;7390082;19;20417;-37
2023/11/02 01:22:50;;;;;;;6.07;1.67;;;;;;;9.17;100.00;98970.28;7401137;19;20415;-39
2023/11/02 01:25:20;;;;;;;9.00;1.80;;;;;;;9.07;100.00;98977.81;7375299;19;20406;-38
2023/11/02 01:27:49;;;;;;;8.40;1.53;;;;;;;8.98;100.00;98984.50;7398346;19;20407;-39
2023/11/02 01:31:08;;;;;;;4.70;1.43;;;;;;;8.93;100.00;98992.97;7377347;19;20575;-40
2023/11/02 01:34:00;;;;;;;5.83;1.77;;;;;;;8.82;100.00;99010.75;7396183;19;20443;-40
2023/11/02 01:36:38;;;;;;;6.80;1.50;;;;;;;8.78;100.00;99017.53;7376381;19;20411;-39
2023/11/02 01:39:46;;;;;;;2.67;1.30;;;;;;;8.78;100.00;99020.09;7399465;19;21265;-40
2023/11/02 01:42:21;;;;;;;3.20;1.20;;;;;;;8.74;100.00;99032.03;7377294;19;20446;-42
2023/11/02 01:45:01;;;;;;;3.07;1.40;;;;;;;8.75;100.00;99032.88;7374282;19;20458;-38
2023/11/02 01:47:54;;;;;;;3.53;1.60;;;;;;;8.70;100.00;99029.34;7399561;19;20854;-39
2023/11/02 01:50:35;;;;;;;3.20;1.40;;;;;;;8.68;100.00;99039.63;7375176;19;20950;-39
2023/11/02 01:53:17;;;;;;;4.50;1.60;;;;;;;8.65;100.00;99047.25;7398595;19;20434;-39
2023/11/02 01:56:07;;;;;;;3.30;1.40;;;;;;;8.59;100.00;99059.97;7373917;19;20414;-40
2023/11/02 01:58:54;;;;;;;4.80;2.70;;;;;;;8.56;100.00;99070.19;7398129;19;20411;-39
2023/11/02 02:01:28;;;;;;;11.10;1.90;;;;;;;8.54;100.00;99069.25;7374257;19;20798;-40
2023/11/02 02:04:04;;;;;;;6.73;1.60;;;;;;;8.55;100.00;99081.31;7396200;19;20454;-38
2023/11/02 02:06:46;;;;;;;2.10;1.20;;;;;;;8.55;100.00;99097.59;7374963;19;20418;-38
2023/11/02 02:09:24;;;;;;;3.07;1.47;;;;;;;8.50;100.00;99100.03;7396587;19;20411;-39
2023/11/02 02:12:01;;;;;;;9.17;1.83;;;;;;;8.46;100.00;99100.78;7373657;19;20969;-40
2023/11/02 02:14:40;;;;;;;4.07;1.60;;;;;;;8.43;100.00;99100.72;7396164;19;20427;-41
2023/11/02 02:17:20;;;;;;;3.40;1.60;;;;;;;8.44;100.00;99112.72;7371278;19;20448;-40
2023/11/02 02:19:59;;;;;;;4.63;1.57;;;;;;;8.43;100.00;99097.25;7373007;19;20432;-38
2023/11/02 02:22:35;;;;;;;4.00;1.97;;;;;;;8.39;100.00;99104.03;7398306;19;20788;-40
2023/11/02 02:25:12;;;;;;;3.40;1.67;;;;;;;8.40;100.00;99094.63;7368007;19;20402;-38
2023/11/02 02:28:17;;;;;;;2.63;1.40;;;;;;;8.35;100.00;99097.94;7396639;19;20959;-41
2023/11/02 02:30:54;;;;;;;2.87;1.13;;;;;;;8.31;100.00;99098.69;7373315;19;20436;-40
2023/11/02 02:33:43;;;;;;;5.87;1.57;;;;;;;8.34;100.00;99103.03;7397413;19;20449;-39
2023/11/02 02:36:18;;;;;;;4.90;1.70;;;;;;;8.34;100.00;99108.19;7372912;19;20468;-40
2023/11/02 02:38:49;;;;;;;6.50;1.90;;;;;;;8.39;100.00;99096.31;7394682;19;20399;-39
2023/11/02 02:41:19;;;;;;;5.83;2.23;;;;;;;8.40;100.00;99092.91;7373737;19;20407;-39
2023/11/02 02:43:50;;;;;;;5.00;1.47;;;;;;;8.36;100.00;99086.84;7394675;19;20890;-40
2023/11/02 02:46:21;;;;;;;4.03;1.60;;;;;;;8.28;100.00;99088.34;7373681;19;20419;-38
2023/11/02 02:48:51;;;;;;;3.00;1.23;;;;;;;8.19;100.00;99075.28;7391764;19;20399;-40
2023/11/02 02:51:25;;;;;;;4.57;1.40;;;;;;;8.17;100.00;99080.41;7373342;19;20423;-39
2023/11/02 02:53:57;;;;;;;6.27;1.50;;;;;;;8.14;100.00;99077.72;7394630;19;20979;-39
2023/11/02 02:56:28;;;;;;;5.60;1.80;;;;;;;8.17;100.00;99071.81;7374152;19;20440;-38
2023/11/02 02:59:02;;;;;;;3.33;1.47;;;;;;;8.18;100.00;99066.72;7394362;19;20404;-39
2023/11/02 03:01:37;;;;;;;6.13;1.60;;;;;;;8.11;100.00;99067.41;7373239;19;20958;-39
2023/11/02 03:04:13;;;;;;;3.30;1.17;;;;;;;8.09;100.00;99069.91;7395072;19;20522;-39
2023/11/02 03:06:48;;;;;;;3.70;1.60;;;;;;;8.10;100.00;99069.09;7372554;19;20443;-39
2023/11/02 03:09:20;;;;;;;9.40;3.13;;;;;;;8.04;100.00;99078.31;7397383;19;20482;-39
2023/11/02 03:11:53;;;;;;;7.73;1.40;;;;;;;8.02;100.00;99085.13;7371420;19;20423;-38
2023/11/02 03:14:23;;;;;;;6.70;1.30;;;;;;;8.05;100.00;99080.09;7393784;19;20436;-39
2023/11/02 03:16:51;;;;;;;3.40;2.03;;;;;;;8.04;100.00;99083.47;7372067;19;20419;-40
2023/11/02 03:19:45;;;;;;;4.30;1.50;;;;;;;7.99;100.00;99074.81;7397068;19;20402;-37
2023/11/02 03:22:19;;;;;;;3.97;1.40;;;;;;;7.94;100.00;99072.09;7373651;19;20435;-39
2023/11/02 03:24:57;;;;;;;3.03;1.17;;;;;;;7.99;100.00;99064.53;7371611;19;20446;-39
2023/11/02 03:27:33;;;;;;;4.10;1.43;;;;;;;8.02;100.00;99044.03;7394304;19;20407;-39
2023/11/02 03:30:07;;;;;;;3.90;1.47;;;;;;;7.96;100.00;99030.22;7371311;19;20397;-41
2023/11/02 03:32:46;;;;;;;3.40;1.70;;;;;;;7.92;100.00;99023.28;7393537;19;20787;-39
2023/11/02 03:35:21;;;;;;;3.23;1.47;;;;;;;7.88;100.00;99021.47;7371349;19;20467;-39
2023/11/02 03:38:02;;;;;;;7.67;1.80;;;;;;;7.86;100.00;99002.59;7391896;19;20399;-38
2023/11/02 03:40:40;;;;;;;3.80;1.43;;;;;;;7.88;100.00;99006.03;7373301;19;20425;-40
2023/11/02 03:43:13;;;;;;;4.70;1.90;;;;;;;7.86;100.00;98984.59;7395577;19;21014;-40
2023/11/02 03:46:13;;;;;;;2.67;1.37;;;;;;;7.86;100.00;98976.91;7370849;19;20772;-40
2023/11/02 03:48:46;;;;;;;8.33;2.90;;;;;;;7.85;100.00;98967.47;7392642;19;20411;-39
2023/11/02 03:51:32;;;;;;;2.77;1.70;;;;;;;7.80;100.00;98962.19;7371840;19;20435;-38
2023/11/02 03:54:17;;;;;;;2.60;1.23;;;;;;;7.81;100.00;98948.53;7393231;19;20988;-39
2023/11/02 03:56:55;;;;;;;5.47;2.13;;;;;;;7.77;100.00;98935.59;7370860;19;20435;-40
2023/11/02 03:59:29;;;;;;;13.73;1.37;;;;;;;7.80;100.00;98927.97;7395468;19;20946;-40
2023/11/02 04:02:02;;;;;;;7.23;3.40;;;;;;;7.80;100.00;98925.41;7371035;19;20419;-40
2023/11/02 04:04:36;;;;;;;2.90;1.50;;;;;;;7.73;100.00;98913.25;7390906;19;20443;-39
2023/11/02 04:07:21;;;;;;;9.63;3.03;;;;;;;7.73;100.00;98905.56;7371520;19;20431;-39
2023/11/02 04:09:56;;;;;;;3.67;1.40;;;;;;;7.74;100.00;98904.72;7369199;19;20404;-38
2023/11/02 04:12:34;;;;;;;5.70;2.60;;;;;;;7.73;100.00;98896.13;7392971;19;20992;-40
2023/11/02 04:15:04;;;;;;;8.10;2.00;;;;;;;7.69;100.00;98887.50;7370117;19;20848;-39
2023/11/02 04:17:34;;;;;;;4.70;2.00;;;;;;;7.66;100.00;98892.56;7393490;19;20411;-40
2023/11/02 04:20:05;;;;;;;3.80;1.50;;;;;;;7.68;100.00;98878.06;7369750;19;20458;-40
2023/11/02 04:22:34;;;;;;;6.90;1.30;;;;;;;7.62;100.00;98870.22;7392177;19;20411;-38
2023/11/02 04:25:07;;;;;;;8.43;3.07;;;;;;;7.60;100.00;98861.63;7368457;19;20399;-39
2023/11/02 04:27:37;;;;;;;3.80;1.80;;;;;;;7.64;100.00;98865.13;7390440;19;20763;-39
2023/11/02 04:30:08;;;;;;;4.83;1.70;;;;;;;7.63;100.00;98866.81;7371216;19;20410;-39
2023/11/02 04:32:38;;;;;;;7.47;1.97;;;;;;;7.61;100.00;98857.34;7393924;19;20479;-39
2023/11/02 04:35:09;;;;;;;4.83;1.80;;;;;;;7.64;100.00;98858.28;7372159;19;20487;-38
2023/11/02 04:37:38;;;;;;;4.83;1.40;;;;;;;7.64;100.00;98848.03;7391828;19;20483;-39
2023/11/02 04:40:11;;;;;;;9.00;2.53;;;;;;;7.63;100.00;98830.88;7369355;19;20470;-40
2023/11/02 04:42:41;;;;;;;3.43;1.30;;;;;;;7.65;100.00;98813.81;7391159;19;20404;-39
2023/11/02 04:45:12;;;;;;;3.53;1.60;;;;;;;7.65;100.00;98784.72;7371398;19;20486;-40
2023/11/02 04:47:42;;;;;;;3.60;1.67;;;;;;;7.64;100.00;98776.16;7390400;19;20407;-40
2023/11/02 04:50:12;;;;;;;6.50;1.40;;;;;;;7.64;100.00;98758.19;7369684;19;21189;-39
2023/11/02 04:52:41;;;;;;;6.93;2.27;;;;;;;7.64;100.00;98753.03;7390960;19;20404;-40
2023/11/02 04:55:14;;;;;;;5.90;1.73;;;;;;;7.63;100.00;98756.44;7371333;19;20413;-39
2023/11/02 04:57:44;;;;;;;5.63;1.40;;;;;;;7.65;100.00;98736.81;7391814;19;20418;-39
2023/11/02 05:00:15;;;;;;;4.60;1.90;;;;;;;7.66;100.00;98728.31;7369440;19;20391;-40
2023/11/02 05:02:44;;;;;;;3.30;1.00;;;;;;;7.67;100.00;98716.31;7392540;19;20419;-38
2023/11/02 05:05:14;;;;;;;8.13;1.30;;;;;;;7.74;100.00;98704.47;7368786;19;20423;-40
2023/11/02 05:07:44;;;;;;;8.03;1.53;;;;;;;7.76;100.00;98687.41;7389129;19;20423;-39
2023/11/02 05:10:16;;;;;;;26.77;11.60;;;;;;;7.80;100.00;98684.06;7366640;19;20523;-41
2023/11/02 05:12:46;;;;;;;5.27;1.60;;;;;;;7.76;100.00;98656.59;7390350;19;20404;-40
2023/11/02 05:15:15;;;;;;;2.57;1.30;;;;;;;7.78;100.00;98642.06;7370316;19;20945;-39
2023/11/02 05:17:45;;;;;;;3.53;1.43;;;;;;;7.77;100.00;98620.69;7391323;19;20809;-39
2023/11/02 05:20:15;;;;;;;14.70;3.83;;;;;;;7.75;100.00;98611.22;7368586;19;20901;-39
2023/11/02 05:22:44;;;;;;;5.40;2.10;;;;;;;7.76;100.00;98595.88;7389341;19;20839;-42
2023/11/02 05:25:17;;;;;;;4.30;1.50;;;;;;;7.70;100.00;98585.47;7368751;19;20391;-40
2023/11/02 05:27:46;;;;;;;5.20;1.67;;;;;;;7.69;100.00;98576.03;7388806;19;20487;-40
2023/11/02 05:30:16;;;;;;;4.70;2.10;;;;;;;7.68;100.00;98567.47;7369324;19;20387;-39
2023/11/02 05:32:46;;;;;;;6.03;2.00;;;;;;;7.68;100.00;98572.59;7390106;19;20487;-41
2023/11/02 05:35:16;;;;;;;8.27;2.30;;;;;;;7.69;100.00;98574.34;7370122;19;20786;-40
2023/11/02 05:37:46;;;;;;;4.90;1.40;;;;;;;7.63;100.00;98563.94;7393708;19;20946;-41
2023/11/02 05:40:18;;;;;;;52.30;26.23;;;;;;;7.79;100.00;98557.41;7374924;19;20415;-40
2023/11/02 05:42:48;;;;;;;7.70;3.10;;;;;;;7.86;100.00;98560.06;7399114;19;20467;-41
2023/11/02 05:45:18;;;;;;;11.30;5.83;;;;;;;7.86;100.00;98548.09;7377389;19;20398;-44
2023/11/02 05:47:48;;;;;;;12.70;6.50;;;;;;;7.79;100.00;98533.44;7393881;19;20407;-39
2023/11/02 05:50:18;;;;;;;6.10;3.10;;;;;;;7.83;100.00;98520.69;7375358;19;20411;-40
2023/11/02 05:52:48;;;;;;;8.63;4.17;;;;;;;7.93;100.00;98528.53;7396363;19;20419;-39
2023/11/02 05:55:21;;;;;;;8.93;5.10;;;;;;;7.93;100.00;98525.94;7373550;19;20467;-39
2023/11/02 05:57:51;;;;;;;12.23;3.40;;;;;;;7.92;100.00;98504.56;7397874;19;20420;-38
2023/11/02 06:00:23;;;;;;;8.43;3.80;;;;;;;7.87;100.00;98502.75;7376529;19;20763;-39
2023/11/02 06:02:54;;;;;;;10.63;5.13;;;;;;;7.79;100.00;98488.06;7395718;19;20862;-41
2023/11/02 06:05:23;;;;;;;10.13;2.30;;;;;;;7.74;100.00;98476.00;7373704;19;20479;-39
2023/11/02 06:07:53;;;;;;;5.10;2.00;;;;;;;7.76;100.00;98476.91;7398812;19;20400;-39
2023/11/02 06:10:25;;;;;;;7.30;3.40;;;;;;;7.74;100.00;98465.75;7372737;19;20399;-38
2023/11/02 06:12:55;;;;;;;5.50;2.43;;;;;;;7.72;100.00;98455.44;7396774;19;20404;-39
2023/11/02 06:15:26;;;;;;;5.20;1.90;;;;;;;7.74;100.00;98461.47;7376380;19;20406;-44
2023/11/02 06:17:56;;;;;;;9.83;1.87;;;;;;;7.61;100.00;98452.72;7394927;19;20959;-40
2023/11/02 06:20:25;;;;;;;6.80;1.20;;;;;;;7.62;100.00;98459.56;7375737;19;20419;-39
2023/11/02 06:22:55;;;;;;;4.47;1.47;;;;;;;7.64;100.00;98444.19;7397750;19;20482;-40
2023/11/02 06:25:27;;;;;;;7.07;1.50;;;;;;;7.68;100.00;98444.28;7375154;19;20415;-40
2023/11/02 06:27:57;;;;;;;11.73;4.10;;;;;;;7.67;100.00;98442.53;7397328;19;20494;-39
2023/11/02 06:30:27;;;;;;;8.40;1.43;;;;;;;7.63;100.00;98448.44;7375961;19;20395;-39
2023/11/02 06:32:58;;;;;;;4.03;1.50;;;;;;;7.70;100.00;98432.31;7395492;19;20407;-38
2023/11/02 06:35:28;;;;;;;3.30;1.23;;;;;;;7.77;100.00;98422.16;7374124;19;20419;-39
2023/11/02 06:37:59;;;;;;;7.97;1.57;;;;;;;7.83;100.00;98406.84;7397180;19;20470;-40
2023/11/02 06:40:31;;;;;;;5.20;1.27;;;;;;;7.83;100.00;98400.00;7375469;19;20423;-38
2023/11/02 06:43:01;;;;;;;4.20;1.27;;;;;;;7.89;100.00;98377.84;7397134;19;20409;-38
2023/11/02 06:45:31;;;;;;;5.93;1.43;;;;;;;7.92;100.00;98370.16;7374607;19;20861;-39
2023/11/02 06:48:01;;;;;;;4.23;1.07;;;;;;;7.94;100.00;98360.78;7393026;19;20418;-39
2023/11/02 06:50:32;;;;;;;2.63;1.30;;;;;;;8.00;100.00;98352.31;7373537;19;20399;-40
2023/11/02 06:53:01;;;;;;;6.33;1.83;;;;;;;8.03;100.00;98347.19;7395194;19;20407;-39
2023/11/02 06:55:39;;;;;;;5.87;1.37;;;;;;;8.05;100.00;98340.41;7373982;19;20428;-39
2023/11/02 06:58:09;;;;;;;4.20;1.30;;;;;;;8.09;100.00;98339.56;7395732;19;20416;-40
2023/11/02 07:00:39;;;;;;;8.00;1.40;;;;;;;8.11;100.00;98319.94;7371674;19;20544;-40
2023/11/02 07:03:08;;;;;;;11.60;1.93;;;;;;;8.11;100.00;98309.66;7396412;19;20966;-41
2023/11/02 07:05:38;;;;;;;4.27;1.63;;;;;;;8.18;100.00;98300.31;7370894;19;20415;-38
2023/11/02 07:08:08;;;;;;;6.10;1.43;;;;;;;8.21;100.00;98285.78;7393976;19;20438;-40
2023/11/02 07:10:40;;;;;;;4.87;1.60;;;;;;;8.23;100.00;98268.72;7371378;19;20419;-40
2023/11/02 07:13:11;;;;;;;15.83;4.63;;;;;;;8.24;100.00;98244.75;7396130;19;20436;-41
2023/11/02 07:15:43;;;;;;;4.87;1.47;;;;;;;8.27;100.00;98237.91;7371504;19;20461;-40
2023/11/02 07:18:13;;;;;;;6.33;1.30;;;;;;;8.31;100.00;98234.53;7394279;19;20492;-39
2023/11/02 07:20:43;;;;;;;4.00;1.83;;;;;;;8.31;100.00;98229.38;7370807;19;20422;-39
2023/11/02 07:23:12;;;;;;;5.13;1.87;;;;;;;8.28;100.00;98224.19;7394485;19;20435;-40
2023/11/02 07:25:45;;;;;;;2.80;1.20;;;;;;;8.31;100.00;98221.69;7371408;19;20423;-39
2023/11/02 07:28:14;;;;;;;4.30;1.40;;;;;;;8.31;100.00;98206.28;7394466;19;20424;-39
2023/11/02 07:30:44;;;;;;;3.10;1.50;;;;;;;8.33;100.00;98213.16;7369590;19;21054;-40
2023/11/02 07:33:13;;;;;;;4.87;1.23;;;;;;;8.37;100.00;98221.75;7394744;19;20443;-39
2023/11/02 07:35:43;;;;;;;4.37;1.30;;;;;;;8.39;100.00;98222.63;7371735;19;20433;-39
2023/11/02 07:38:13;;;;;;;3.20;1.10;;;;;;;8.37;100.00;98193.47;7393703;19;20416;-38
2023/11/02 07:40:45;;;;;;;3.03;1.27;;;;;;;8.38;100.00;98190.06;7372889;19;21023;-41
2023/11/02 07:43:15;;;;;;;5.43;2.30;;;;;;;8.42;100.00;98193.53;7395607;19;20442;-38
2023/11/02 07:45:44;;;;;;;6.60;1.23;;;;;;;8.45;100.00;98194.41;7371546;19;20430;-38
2023/11/02 07:48:14;;;;;;;3.50;1.13;;;;;;;8.45;100.00;98181.56;7394704;19;20428;-37
2023/11/02 07:50:44;;;;;;;4.90;0.90;;;;;;;8.45;100.00;98181.56;7373268;19;20422;-39
2023/11/02 07:53:13;;;;;;;2.67;1.00;;;;;;;8.47;100.00;98164.44;7393580;19;20428;-38
2023/11/02 07:55:45;;;;;;;6.70;1.40;;;;;;;8.49;100.00;98157.63;7369807;19;20422;-41
2023/11/02 07:58:16;;;;;;;1.90;1.00;;;;;;;8.48;100.00;98155.91;7393606;19;20486;-39
2023/11/02 08:00:45;;;;;;;2.93;1.10;;;;;;;8.50;100.00;98154.19;7367081;19;20970;-38
2023/11/02 08:03:15;;;;;;;8.47;2.50;;;;;;;8.55;100.00;98140.56;7391525;19;20805;-40
2023/11/02 08:05:44;;;;;;;7.93;2.10;;;;;;;8.59;100.00;98140.59;7370108;19;20422;-39
2023/11/02 08:08:14;;;;;;;9.83;1.40;;;;;;;8.60;100.00;98108.91;7392833;19;20403;-38
2023/11/02 08:10:47;;;;;;;6.30;2.20;;;;;;;8.61;100.00;98104.63;7365527;19;20768;-39
2023/11/02 08:13:17;;;;;;;2.33;1.10;;;;;;;8.62;100.00;98104.63;7392852;19;20423;-40
2023/11/02 08:15:46;;;;;;;3.73;1.20;;;;;;;8.63;100.00;98070.34;7370839;19;20423;-38
2023/11/02 08:18:17;;;;;;;6.53;2.33;;;;;;;8.65;100.00;98044.66;7392437;19;20772;-40
2023/11/02 08:20:47;;;;;;;4.43;1.27;;;;;;;8.69;100.00;98064.41;7365309;19;20491;-40
2023/11/02 08:23:17;;;;;;;12.30;1.10;;;;;;;8.73;100.00;98065.28;7394581;19;20458;-40
2023/11/02 08:25:51;;;;;;;16.47;5.27;;;;;;;8.66;100.00;98097.78;7369292;19;20423;-37
2023/11/02 08:28:20;;;;;;;3.77;1.17;;;;;;;8.68;100.00;98067.84;7392638;19;20416;-39
2023/11/02 08:30:50;;;;;;;3.10;1.10;;;;;;;8.71;100.00;98039.56;7369634;19;20420;-38
2023/11/02 08:33:20;;;;;;;4.93;1.50;;;;;;;8.75;100.00;98032.72;7394404;19;20786;-39
2023/11/02 08:35:49;;;;;;;8.80;1.10;;;;;;;8.75;100.00;98051.59;7370231;19;20426;-39
2023/11/02 08:38:19;;;;;;;3.57;1.07;;;;;;;8.77;100.00;98096.16;7393980;19;20402;-41
2023/11/02 08:40:51;;;;;;;7.93;1.73;;;;;;;8.77;100.00;98110.75;7368922;19;20423;-39
2023/11/02 08:43:21;;;;;;;3.00;0.83;;;;;;;8.87;100.00;98111.66;7392542;19;20442;-39
2023/11/02 08:45:51;;;;;;;8.37;1.63;;;;;;;8.90;100.00;98111.66;7369149;19;20432;-40
2023/11/02 08:48:20;;;;;;;10.87;1.77;;;;;;;8.89;100.00;98104.81;7392368;19;20410;-38
2023/11/02 08:50:50;;;;;;;3.90;1.30;;;;;;;8.94;100.00;98092.84;7368716;19;20852;-40
2023/11/02 08:53:19;;;;;;;7.20;2.10;;;;;;;8.97;100.00;98067.13;7392571;19;20443;-39
2023/11/02 08:55:52;;;;;;;4.50;1.80;;;;;;;8.98;100.00;98048.25;7368598;19;20436;-42
2023/11/02 08:58:21;;;;;;;5.57;1.70;;;;;;;9.00;100.00;98008.00;7393439;19;20475;-39
2023/11/02 09:00:51;;;;;;;5.90;1.40;;;;;;;9.05;100.00;97964.28;7368646;19;20426;-38
2023/11/02 09:03:21;;;;;;;6.33;1.97;;;;;;;9.08;100.00;97987.44;7394230;19;20451;-43
2023/11/02 09:05:51;;;;;;;3.50;1.00;;;;;;;9.14;100.00;98012.34;7369185;19;20427;-38
2023/11/02 09:08:20;;;;;;;2.53;1.00;;;;;;;9.23;100.00;98012.34;7391204;19;20470;-37
2023/11/02 09:10:52;;;;;;;10.90;3.87;;;;;;;9.26;100.00;98006.34;7366627;19;20942;-39
2023/11/02 09:13:22;;;;;;;4.57;1.20;;;;;;;9.25;100.00;98010.66;7397255;19;20420;-40
2023/11/02 09:15:52;;;;;;;3.30;1.40;;;;;;;9.27;100.00;98011.53;7376372;19;20516;-41
2023/11/02 09:18:22;;;;;;;10.00;4.50;;;;;;;9.35;100.00;98023.53;7400447;19;20822;-39
2023/11/02 09:20:52;;;;;;;4.83;1.00;;;;;;;9.41;100.00;98027.00;7376388;19;20415;-39
2023/11/02 09:23:22;;;;;;;5.53;1.00;;;;;;;9.43;100.00;98043.31;7398059;19;20436;-40
2023/11/02 09:25:55;;;;;;;2.80;1.03;;;;;;;9.49;100.00;98045.03;7374927;19;20494;-40
2023/11/02 09:28:25;;;;;;;3.30;1.27;;;;;;;9.51;100.00;98029.59;7398344;19;20807;-39
2023/11/02 09:30:54;;;;;;;10.93;1.20;;;;;;;9.49;100.00;98027.00;7376159;19;20434;-38
2023/11/02 09:33:24;;;;;;;12.53;1.23;;;;;;;9.50;100.00;98005.59;7400168;19;20451;-38
2023/11/02 09:35:53;;;;;;;2.93;0.90;;;;;;;9.52;100.00;97983.28;7374848;19;20422;-39
2023/11/02 09:38:23;;;;;;;5.73;0.97;;;;;;;9.53;100.00;97974.69;7400537;19;20402;-41
2023/11/02 09:40:55;;;;;;;3.83;1.00;;;;;;;9.56;100.00;97964.41;7374146;19;20440;-38
2023/11/02 09:43:27;;;;;;;3.97;0.80;;;;;;;9.65;100.00;97952.41;7398123;19;20437;-39
2023/11/02 09:45:56;;;;;;;4.23;0.77;;;;;;;9.69;100.00;97961.84;7373908;19;20423;-40
2023/11/02 09:48:27;;;;;;;2.57;0.90;;;;;;;9.68;100.00;97963.56;7392119;19;20990;-39
2023/11/02 09:50:58;;;;;;;5.73;2.20;;;;;;;9.70;100.00;97972.13;7375053;19;20521;-38
2023/11/02 09:53:28;;;;;;;10.20;1.03;;;;;;;9.78;100.00;97960.97;7393749;19;20515;-40
2023/11/02 09:56:01;;;;;;;2.60;0.80;;;;;;;9.80;100.00;97956.69;7373020;19;20419;-38
2023/11/02 09:58:31;;;;;;;5.40;1.00;;;;;;;9.80;100.00;97954.97;7400298;19;20443;-39
2023/11/02 10:01:02;;;;;;;7.03;3.10;;;;;;;9.86;100.00;97944.66;7373921;19;20502;-39
2023/11/02 10:03:32;;;;;;;4.83;1.03;;;;;;;9.88;100.00;97952.41;7399510;19;20502;-43
2023/11/02 10:06:03;;;;;;;5.23;1.10;;;;;;;9.91;100.00;97944.69;7374606;19;20432;-38
2023/11/02 10:08:32;;;;;;;7.40;2.87;;;;;;;10.01;100.00;97940.38;7391956;19;20411;-39
2023/11/02 10:11:18;;;;;;;7.83;2.17;;;;;;;10.00;100.00;97924.06;7365192;19;20430;-39
2023/11/02 10:13:51;;;;;;;3.97;1.00;;;;;;;10.09;100.00;97932.63;7394553;19;20518;-40
2023/11/02 10:16:24;;;;;;;5.30;1.30;;;;;;;10.04;100.00;97930.06;7373214;19;20455;-41
2023/11/02 10:18:54;;;;;;;4.77;1.10;;;;;;;10.10;100.00;97950.66;7396324;19;20399;-42
2023/11/02 10:21:25;;;;;;;4.00;1.43;;;;;;;10.16;100.00;97933.47;7374560;19;20423;-39
2023/11/02 10:23:58;;;;;;;2.80;0.87;;;;;;;10.16;100.00;97933.47;7394936;19;20451;-41
2023/11/02 10:26:34;;;;;;;2.33;0.70;;;;;;;10.17;100.00;97936.06;7373911;19;20448;-40
2023/11/02 10:29:04;;;;;;;4.50;1.10;;;;;;;10.17;100.00;97923.19;7394768;19;20418;-41
2023/11/02 10:31:36;;;;;;;8.03;1.83;;;;;;;10.24;100.00;97921.44;7373896;19;20537;-40
2023/11/02 10:34:09;;;;;;;4.03;1.47;;;;;;;10.24;100.00;97917.16;7397362;19;20462;-37
2023/11/02 10:36:39;;;;;;;2.33;0.70;;;;;;;10.24;100.00;97936.88;7373777;19;20439;-39
2023/11/02 10:39:10;;;;;;;3.50;0.90;;;;;;;10.31;100.00;97937.75;7398658;19;20434;-39
2023/11/02 10:41:42;;;;;;;3.50;1.40;;;;;;;10.29;100.00;97909.41;7373957;19;20441;-40
2023/11/02 10:44:11;;;;;;;4.40;1.60;;;;;;;10.27;100.00;97893.94;7397459;19;20459;-38
2023/11/02 10:46:42;;;;;;;4.53;1.07;;;;;;;10.31;100.00;97883.63;7373322;19;20419;-39
2023/11/02 10:49:13;;;;;;;6.60;0.80;;;;;;;10.35;100.00;97878.47;7395127;19;20984;-42
2023/11/02 10:51:45;;;;;;;3.83;1.43;;;;;;;10.38;100.00;97880.16;7373322;19;20444;-39
2023/11/02 10:54:23;;;;;;;4.57;1.10;;;;;;;10.39;100.00;97869.00;7396101;19;20441;-40
2023/11/02 10:57:04;;;;;;;3.97;1.00;;;;;;;10.42;100.00;97857.81;7370495;19;20439;-38
2023/11/02 10:59:35;;;;;;;6.40;1.57;;;;;;;10.45;100.00;97865.59;7395904;19;20415;-38
2023/11/02 11:02:05;;;;;;;5.77;0.90;;;;;;;10.47;100.00;97845.81;7374051;19;20442;-38
2023/11/02 11:04:35;;;;;;;5.10;1.40;;;;;;;10.47;100.00;97853.53;7396617;19;20982;-39
2023/11/02 11:07:05;;;;;;;3.27;1.40;;;;;;;10.41;100.00;97851.78;7374502;19;20461;-39
2023/11/02 11:09:38;;;;;;;3.17;0.80;;;;;;;10.44;100.00;97867.28;7395610;19;20411;-39
2023/11/02 11:12:11;;;;;;;3.60;1.10;;;;;;;10.48;100.00;97852.66;7372010;19;20460;-39
2023/11/02 11:14:41;;;;;;;3.40;1.00;;;;;;;10.46;100.00;97844.94;7373529;19;20463;-39
2023/11/02 11:17:12;;;;;;;3.60;1.17;;;;;;;10.53;100.00;97850.94;7396889;19;20411;-40
2023/11/02 11:19:42;;;;;;;2.53;0.90;;;;;;;10.50;100.00;97845.78;7374263;19;20400;-41
2023/11/02 11:22:15;;;;;;;3.47;1.70;;;;;;;10.55;100.00;97849.19;7393754;19;20411;-39
2023/11/02 11:24:45;;;;;;;2.97;0.97;;;;;;;10.58;100.00;97838.88;7372485;19;20456;-39
2023/11/02 11:27:31;;;;;;;3.83;1.10;;;;;;;10.61;100.00;97833.69;7395583;19;20435;-39
2023/11/02 11:30:03;;;;;;;2.60;0.80;;;;;;;10.60;100.00;97813.94;7371451;19;20945;-39
2023/11/02 11:32:37;;;;;;;3.70;0.90;;;;;;;10.60;100.00;97825.97;7395190;19;20412;-41
2023/11/02 11:35:06;;;;;;;2.00;0.70;;;;;;;10.65;100.00;97809.63;7370443;19;20415;-40
2023/11/02 11:37:38;;;;;;;7.43;2.97;;;;;;;10.66;100.00;97810.47;7394655;19;20455;-40
2023/11/02 11:40:24;;;;;;;2.07;0.80;;;;;;;10.63;100.00;97805.34;7373522;19;20391;-43
2023/11/02 11:43:05;;;;;;;2.47;0.77;;;;;;;10.63;100.00;97811.34;7394804;19;20438;-39
2023/11/02 11:45:36;;;;;;;2.97;0.77;;;;;;;10.63;100.00;97801.03;7373276;19;20399;-39
2023/11/02 11:48:07;;;;;;;7.80;2.83;;;;;;;10.60;100.00;97801.06;7393396;19;20404;-39
2023/11/02 11:50:40;;;;;;;2.30;1.20;;;;;;;10.60;100.00;97800.19;7372331;19;20423;-39
2023/11/02 11:53:20;;;;;;;2.20;0.90;;;;;;;10.64;100.00;97787.28;7393751;19;20849;-40
2023/11/02 11:55:51;;;;;;;3.80;1.27;;;;;;;10.64;100.00;97797.59;7368911;19;20977;-39
2023/11/02 11:58:49;;;;;;;3.53;0.97;;;;;;;10.73;100.00;97794.13;7393300;19;20415;-40
2023/11/02 12:01:20;;;;;;;2.20;0.90;;;;;;;10.74;100.00;97788.09;7371687;19;20434;-39